Saturday, January 20, 2018, 10:02 AM EST
Back to Local

KTEB, Teterboro Airport

Location: South Hackensack, NJ, United States Lat: 40.867
Local Time: 10:02 AM EST (15:02 GMT) Lon: -74.05
Time Zone: US/Eastern Elev: 9 ft

Show me the last for .
Show Coded

Time T Td Feel RH Dir Speed Gust Alt SLP Vis Weather Sky Remarks
2018-01-20 08:51 42 24 34 48 250° 13 18 29.88 29.88 10 CLR None
2018-01-20 07:51 35 22 29 58 200° 7 - 29.87 29.86 10 CLR None
2018-01-20 06:51 33 21 26 60 190° 8 - 29.86 29.86 10 CLR 6-hr Min Temp (7am): 27.0°F
6-hr Max Temp (7am): 33.1°F
2018-01-20 05:51 32 20 25 60 200° 8 - 29.87 29.87 10 CLR None
2018-01-20 04:51 27 19 20 71 260° 6 - 29.88 29.87 10 CLR None
2018-01-20 03:51 28 19 23 68 210° 5 - 29.89 29.88 10 CLR None
2018-01-20 01:51 30 20 23 65 Variable 7 - 29.90 29.90 10 CLR None
2018-01-20 00:51 28 20 21 71 220° 7 - 29.91 29.91 10 CLR 6-hr Min Temp (1am): 27.0°F
6-hr Max Temp (1am): 37.0°F
2018-01-19 23:51 30 20 - 65 - Calm - 29.92 29.92 10 CLR 24-hr Min Temp (12am): 19.0°F
24-hr Max Temp (12am): 39.9°F
2018-01-19 22:51 27 19 20 71 290° 6 - 29.95 29.95 10 CLR None
2018-01-19 21:51 29 19 24 66 Variable 5 - 29.97 29.97 10 CLR None
2018-01-19 20:51 34 18 - 51 - Calm - 29.98 29.98 10 CLR None
2018-01-19 19:51 33 18 - 53 - Calm - 29.98 29.98 10 CLR None
2018-01-19 18:51 33 19 28 55 Variable 6 - 29.98 29.98 10 CLR 6-hr Min Temp (7pm): 33.1°F
6-hr Max Temp (7pm): 39.9°F
2018-01-19 17:51 38 20 33 47 Variable 6 - 29.98 29.97 10 CLR None
2018-01-19 16:51 40 18 35 40 Variable 7 - 29.98 29.97 10 CLR None
2018-01-19 15:51 39 17 33 40 200° 8 - 29.97 29.97 10 CLR None
2018-01-19 14:51 37 17 31 43 290° 8 - 29.97 29.97 10 CLR None
2018-01-19 13:51 35 16 29 45 260° 8 - 29.99 29.98 10 CLR None
2018-01-19 12:51 35 16 29 45 270° 8 - 30.00 30.00 10 CLR 6-hr Min Temp (1pm): 23.0°F
6-hr Max Temp (1pm): 35.1°F
2018-01-19 11:51 33 15 22 47 280° 12 20 30.04 30.04 10 CLR None
2018-01-19 10:51 32 15 24 49 280° 9 - 30.07 30.06 10 CLR None

Support USWX by starting your Amazon purchase here.